createdAt,value
2023-05-19T00:00:47.604Z,5.76
2023-05-19T00:01:45.455Z,5.76
2023-05-19T00:02:45.519Z,5.75
2023-05-19T00:03:45.454Z,5.74
2023-05-19T00:04:45.462Z,5.72
2023-05-19T00:05:45.492Z,5.74
2023-05-19T00:06:45.482Z,5.74
2023-05-19T00:07:45.495Z,5.76
2023-05-19T00:08:45.502Z,5.76
2023-05-19T00:09:45.509Z,5.79
2023-05-19T00:10:45.527Z,5.78
2023-05-19T00:11:45.538Z,5.78
2023-05-19T00:12:45.539Z,5.77
2023-05-19T00:13:45.538Z,5.77
2023-05-19T00:14:45.548Z,5.72
2023-05-19T00:15:45.589Z,5.74
2023-05-19T00:16:45.565Z,5.72
2023-05-19T00:17:45.591Z,5.73
2023-05-19T00:18:45.608Z,5.73
2023-05-19T00:19:45.590Z,5.75
2023-05-19T00:20:45.599Z,5.75
2023-05-19T00:21:45.613Z,5.76
2023-05-19T00:22:45.618Z,5.78
2023-05-19T00:23:45.628Z,5.80
2023-05-19T00:24:45.666Z,5.78
2023-05-19T00:25:45.647Z,5.79
2023-05-19T00:26:45.655Z,5.79
2023-05-19T00:27:45.668Z,5.79
2023-05-19T00:28:45.676Z,5.80
2023-05-19T00:46:46.166Z,5.79
2023-05-19T00:47:45.914Z,5.78
2023-05-19T00:48:45.856Z,5.79
2023-05-19T00:49:45.859Z,5.80
2023-05-19T00:50:45.880Z,5.85
2023-05-19T00:51:45.889Z,5.84
2023-05-19T00:52:45.899Z,5.86
2023-05-19T00:53:45.911Z,5.85
2023-05-19T00:54:45.923Z,5.82
2023-05-19T00:55:45.933Z,5.81
2023-05-19T00:56:45.950Z,5.82
2023-05-19T00:57:45.961Z,5.80
2023-05-19T00:58:45.966Z,5.75
2023-05-19T00:59:45.974Z,5.74
2023-05-19T01:00:46.005Z,5.74
2023-05-19T01:01:46.001Z,5.72
2023-05-19T01:02:46.058Z,5.68
2023-05-19T01:03:46.063Z,5.66
2023-05-19T01:04:46.031Z,5.63
2023-05-19T01:05:46.034Z,5.62
2023-05-19T01:06:46.045Z,5.62
2023-05-19T01:07:46.063Z,5.62
2023-05-19T01:08:46.070Z,5.61
2023-05-19T01:09:46.077Z,5.61
2023-05-19T01:10:46.100Z,5.59
2023-05-19T01:11:46.099Z,5.60
2023-05-19T01:12:46.110Z,5.59
2023-05-19T01:13:46.113Z,5.59
2023-05-19T01:14:46.122Z,5.58
2023-05-19T01:15:46.136Z,5.57
2023-05-19T01:16:46.224Z,5.56
2023-05-19T01:17:46.173Z,5.56
2023-05-19T01:18:46.201Z,5.52
2023-05-19T01:19:46.179Z,5.51
2023-05-19T01:20:46.187Z,5.47
2023-05-19T01:21:46.194Z,5.47
2023-05-19T01:22:46.209Z,5.46
2023-05-19T01:23:46.208Z,5.46
2023-05-19T01:24:46.220Z,5.47
2023-05-19T01:25:46.231Z,5.46
2023-05-19T01:26:46.242Z,5.47
2023-05-19T01:27:46.250Z,5.46
2023-05-19T01:28:46.261Z,5.45
2023-05-19T01:29:46.273Z,5.42
2023-05-19T01:30:46.280Z,5.42
2023-05-19T01:31:46.292Z,5.42
2023-05-19T01:32:46.364Z,5.41
2023-05-19T01:33:46.304Z,5.42
2023-05-19T01:34:46.308Z,5.39
2023-05-19T01:35:46.314Z,5.37
2023-05-19T01:36:46.321Z,5.37
2023-05-19T01:37:46.336Z,5.37
2023-05-19T01:38:46.332Z,5.37
2023-05-19T01:39:46.345Z,5.36
2023-05-19T01:40:46.371Z,5.36
2023-05-19T01:41:46.372Z,5.37
2023-05-19T01:42:46.378Z,5.35
2023-05-19T01:43:46.382Z,5.32
2023-05-19T01:44:46.390Z,5.33
2023-05-19T01:45:46.433Z,5.35
2023-05-19T01:46:46.409Z,5.32
2023-05-19T01:47:46.433Z,5.32
2023-05-19T01:48:46.421Z,5.33
2023-05-19T01:49:46.426Z,5.34
2023-05-19T01:50:46.433Z,5.35
2023-05-19T01:51:46.442Z,5.34
2023-05-19T01:52:46.461Z,5.36
2023-05-19T01:53:46.472Z,5.37
2023-05-19T01:54:46.487Z,5.37
2023-05-19T01:55:46.489Z,5.39
2023-05-19T01:56:46.503Z,5.42
2023-05-19T01:57:46.517Z,5.43
2023-05-19T01:58:46.528Z,5.44
2023-05-19T01:59:46.540Z,5.45
2023-05-19T02:00:46.552Z,5.47
2023-05-19T02:01:46.591Z,5.49
2023-05-19T02:02:46.581Z,5.51
2023-05-19T02:03:46.586Z,5.48
2023-05-19T02:04:46.656Z,5.49
2023-05-19T02:05:46.609Z,5.52
2023-05-19T02:06:46.624Z,5.54
2023-05-19T02:07:46.633Z,5.54
2023-05-19T02:08:46.646Z,5.54
2023-05-19T02:09:46.655Z,5.56
2023-05-19T02:10:46.670Z,5.57
2023-05-19T02:11:46.682Z,5.59
2023-05-19T02:12:46.688Z,5.61
2023-05-19T02:13:46.698Z,5.62
2023-05-19T02:14:46.702Z,5.63
2023-05-19T02:15:46.730Z,5.64
2023-05-19T02:16:46.722Z,5.69
2023-05-19T02:17:46.740Z,5.71
2023-05-19T02:18:46.788Z,5.73
2023-05-19T02:19:46.756Z,5.74
2023-05-19T02:20:46.767Z,5.75
2023-05-19T02:21:46.775Z,5.75
2023-05-19T02:22:46.801Z,5.80
2023-05-19T02:23:46.788Z,5.83
2023-05-19T02:24:46.803Z,5.86
2023-05-19T02:25:46.813Z,5.88
2023-05-19T02:26:46.821Z,5.89
2023-05-19T02:27:46.833Z,5.92
2023-05-19T02:28:46.847Z,5.94
2023-05-19T02:29:46.856Z,5.96
2023-05-19T02:30:46.869Z,5.96
2023-05-19T02:31:46.918Z,5.99
2023-05-19T02:32:46.973Z,6.02
2023-05-19T02:33:46.895Z,6.02
2023-05-19T02:34:46.909Z,6.02
2023-05-19T02:35:46.919Z,6.09
2023-05-19T02:36:46.931Z,6.04
2023-05-19T02:37:46.942Z,6.07
2023-05-19T02:38:46.952Z,6.08
2023-05-19T02:39:46.960Z,6.08
2023-05-19T02:40:46.972Z,6.08
2023-05-19T02:41:46.987Z,6.07
2023-05-19T02:42:46.995Z,6.11
2023-05-19T02:43:47.005Z,6.10
2023-05-19T02:44:47.010Z,6.09
2023-05-19T02:45:47.027Z,6.09
2023-05-19T02:46:47.141Z,6.11
2023-05-19T02:47:47.074Z,6.10
2023-05-19T02:48:47.056Z,6.11
2023-05-19T02:49:47.069Z,6.12
2023-05-19T02:50:47.075Z,6.14
2023-05-19T02:51:47.113Z,6.13
2023-05-19T02:52:47.100Z,6.14
2023-05-19T02:53:47.105Z,6.17
2023-05-19T02:54:47.118Z,6.17
2023-05-19T02:55:47.127Z,6.22
2023-05-19T02:56:47.136Z,6.25
2023-05-19T02:57:47.148Z,6.28
2023-05-19T02:58:47.163Z,6.33
2023-05-19T02:59:47.179Z,6.31
2023-05-19T03:00:47.187Z,6.31
2023-05-19T03:01:47.237Z,6.32
2023-05-19T03:02:47.266Z,6.32
2023-05-19T03:03:47.288Z,6.34
2023-05-19T03:04:47.227Z,6.37
2023-05-19T03:05:47.243Z,6.35
2023-05-19T03:06:47.250Z,6.34
2023-05-19T03:07:47.268Z,6.30
2023-05-19T03:08:47.276Z,6.29
2023-05-19T03:09:47.281Z,6.28
2023-05-19T03:10:47.290Z,6.31
2023-05-19T03:11:47.306Z,6.32
2023-05-19T03:12:47.316Z,6.33
2023-05-19T03:13:49.156Z,6.30
2023-05-19T03:14:49.170Z,6.31
2023-05-19T03:15:47.398Z,6.32
2023-05-19T03:16:47.388Z,6.35
2023-05-19T03:17:47.485Z,6.35
2023-05-19T03:18:47.434Z,6.37
2023-05-19T03:19:47.394Z,6.41
2023-05-19T03:20:47.406Z,6.39
2023-05-19T03:21:47.419Z,6.39
2023-05-19T03:22:47.417Z,6.39
2023-05-19T03:23:47.430Z,6.38
2023-05-19T03:24:47.432Z,6.37
2023-05-19T03:25:47.445Z,6.36
2023-05-19T03:26:47.456Z,6.38
2023-05-19T03:27:47.466Z,6.38
2023-05-19T03:28:47.476Z,6.40
2023-05-19T03:29:47.483Z,6.42
2023-05-19T03:30:47.505Z,6.42
2023-05-19T03:31:47.508Z,6.44
2023-05-19T03:32:47.721Z,6.44
2023-05-19T03:33:47.532Z,6.48
2023-05-19T03:34:47.542Z,6.50
2023-05-19T03:35:47.571Z,6.50
2023-05-19T03:36:47.554Z,6.54
2023-05-19T03:37:47.570Z,6.57
2023-05-19T03:38:47.590Z,6.55
2023-05-19T03:39:47.599Z,6.57
2023-05-19T03:40:47.608Z,6.58
2023-05-19T03:41:47.607Z,6.60
2023-05-19T03:42:47.620Z,6.63
2023-05-19T03:43:47.630Z,6.65
2023-05-19T03:44:47.641Z,6.65
2023-05-19T03:45:47.671Z,6.67
2023-05-19T03:46:47.663Z,6.70
2023-05-19T03:47:47.765Z,6.66
2023-05-19T03:48:47.692Z,6.70
2023-05-19T03:49:47.700Z,6.71
2023-05-19T03:50:47.703Z,6.72
2023-05-19T03:51:47.721Z,6.73
2023-05-19T03:52:47.729Z,6.74
2023-05-19T03:53:47.740Z,6.75
2023-05-19T03:54:47.760Z,6.75
2023-05-19T03:55:47.757Z,6.74
2023-05-19T03:56:47.763Z,6.77
2023-05-19T03:57:47.771Z,6.80
2023-05-19T03:58:47.784Z,6.83
2023-05-19T03:59:47.795Z,6.84
2023-05-19T04:00:47.798Z,6.85
2023-05-19T04:01:47.823Z,6.93
2023-05-19T04:02:47.889Z,6.93
2023-05-19T04:03:47.855Z,6.92
2023-05-19T04:04:47.924Z,6.95
2023-05-19T04:05:47.861Z,6.97
2023-05-19T04:06:47.873Z,6.98
2023-05-19T04:07:47.889Z,7.03
2023-05-19T04:08:47.897Z,7.07
2023-05-19T04:09:47.903Z,7.05
2023-05-19T04:10:47.917Z,7.05
2023-05-19T04:11:47.921Z,7.11
2023-05-19T04:12:48.004Z,7.15
2023-05-19T04:13:47.952Z,7.19
2023-05-19T04:14:47.958Z,7.23
2023-05-19T04:15:48.002Z,7.26
2023-05-19T04:16:47.973Z,7.33
2023-05-19T04:17:47.993Z,7.35
2023-05-19T04:18:48.010Z,7.40
2023-05-19T04:19:48.010Z,7.37
2023-05-19T04:20:48.011Z,7.37
2023-05-19T04:21:48.022Z,7.41
2023-05-19T04:22:48.038Z,7.41
2023-05-19T04:23:48.049Z,7.38
2023-05-19T04:24:48.060Z,7.36
2023-05-19T04:25:48.073Z,7.33
2023-05-19T04:26:48.079Z,7.33
2023-05-19T04:27:48.086Z,7.33
2023-05-19T04:28:48.097Z,7.34
2023-05-19T04:29:48.109Z,7.39
2023-05-19T04:30:48.140Z,7.38
2023-05-19T04:31:48.137Z,7.45
2023-05-19T04:32:48.173Z,7.49
2023-05-19T04:33:48.165Z,7.50
2023-05-19T04:34:48.180Z,7.51
2023-05-19T04:35:48.200Z,7.54
2023-05-19T04:36:48.588Z,7.60
2023-05-19T04:37:48.222Z,7.64
2023-05-19T04:38:48.227Z,7.71
2023-05-19T04:39:48.229Z,7.73
2023-05-19T04:40:48.247Z,7.75
2023-05-19T04:41:48.267Z,7.73
2023-05-19T04:42:48.270Z,7.73
2023-05-19T04:43:48.281Z,7.73
2023-05-19T04:44:48.294Z,7.77
2023-05-19T04:45:48.307Z,7.72
2023-05-19T04:46:48.332Z,7.71
2023-05-19T04:47:48.414Z,7.71
2023-05-19T04:48:48.337Z,7.74
2023-05-19T04:49:48.351Z,7.76
2023-05-19T04:50:48.351Z,7.79
2023-05-19T04:51:48.360Z,7.81
2023-05-19T04:52:48.367Z,7.83
2023-05-19T04:53:48.378Z,7.85
2023-05-19T04:54:48.395Z,7.90
2023-05-19T04:55:48.405Z,7.97
2023-05-19T04:56:48.430Z,7.98
2023-05-19T04:57:48.424Z,8.01
2023-05-19T04:58:48.440Z,8.07
2023-05-19T04:59:48.451Z,8.14
2023-05-19T05:00:48.464Z,8.14
2023-05-19T05:01:48.508Z,8.12
2023-05-19T05:02:48.558Z,8.11
2023-05-19T05:03:48.561Z,8.14
2023-05-19T05:04:48.515Z,8.20
2023-05-19T05:05:48.525Z,8.20
2023-05-19T05:06:48.531Z,8.25
2023-05-19T05:07:48.543Z,8.27
2023-05-19T05:08:48.554Z,8.27
2023-05-19T05:09:48.567Z,8.31
2023-05-19T05:10:48.575Z,8.36
2023-05-19T05:11:48.591Z,8.34
2023-05-19T05:12:48.601Z,8.32
2023-05-19T05:13:48.646Z,8.32
2023-05-19T05:14:48.632Z,8.34
2023-05-19T05:15:48.645Z,8.38
2023-05-19T05:16:48.697Z,8.41
2023-05-19T05:17:48.683Z,8.42
2023-05-19T05:18:48.750Z,8.46
2023-05-19T05:19:48.701Z,8.51
2023-05-19T05:20:48.711Z,8.54
2023-05-19T05:21:48.720Z,8.56
2023-05-19T05:22:48.726Z,8.61
2023-05-19T05:23:48.741Z,8.67
2023-05-19T05:24:48.757Z,8.72
2023-05-19T05:25:48.765Z,8.80
2023-05-19T05:26:48.779Z,8.85
2023-05-19T05:27:48.799Z,8.89
2023-05-19T05:28:48.809Z,8.91
2023-05-19T05:29:49.242Z,8.99
2023-05-19T05:30:48.836Z,9.00
2023-05-19T05:31:48.840Z,9.08
2023-05-19T05:32:48.908Z,9.17
2023-05-19T05:33:48.886Z,9.28
2023-05-19T05:34:48.885Z,9.36
2023-05-19T05:35:48.899Z,9.38
2023-05-19T05:36:48.914Z,9.42
2023-05-19T05:37:48.929Z,9.48
2023-05-19T05:38:48.933Z,9.52
2023-05-19T05:39:48.941Z,9.59
2023-05-19T05:40:48.950Z,9.65
2023-05-19T05:41:48.960Z,9.67
2023-05-19T05:42:48.979Z,9.77
2023-05-19T05:43:48.978Z,9.81
2023-05-19T05:44:48.985Z,9.87
2023-05-19T05:45:49.021Z,9.92
2023-05-19T05:46:49.000Z,9.97
2023-05-19T05:47:49.039Z,10.02
2023-05-19T05:48:49.036Z,10.10
2023-05-19T05:49:49.286Z,10.14
2023-05-19T05:50:49.049Z,10.20
2023-05-19T05:52:01.777Z,10.30
2023-05-19T05:52:49.070Z,10.37
2023-05-19T05:53:49.093Z,10.45
2023-05-19T05:54:49.095Z,10.51
2023-05-19T05:55:49.110Z,10.56
2023-05-19T05:56:49.111Z,10.63
2023-05-19T05:57:49.116Z,10.71
2023-05-19T05:58:49.130Z,10.79
2023-05-19T05:59:49.144Z,10.85
2023-05-19T06:00:49.144Z,10.90
2023-05-19T06:01:49.154Z,10.95
2023-05-19T06:02:49.276Z,10.97
2023-05-19T06:03:49.228Z,10.97
2023-05-19T06:04:49.182Z,10.95
2023-05-19T06:05:49.234Z,10.94
2023-05-19T06:06:49.215Z,10.98
2023-05-19T06:07:49.240Z,10.97
2023-05-19T06:08:49.245Z,10.87
2023-05-19T06:09:49.254Z,10.85
2023-05-19T06:10:49.259Z,10.87
2023-05-19T06:11:49.271Z,10.93
2023-05-19T06:12:49.286Z,10.96
2023-05-19T06:13:49.294Z,10.94
2023-05-19T06:14:49.311Z,10.93
2023-05-19T06:15:49.349Z,10.91
2023-05-19T06:16:49.339Z,10.96
2023-05-19T06:17:49.361Z,10.94
2023-05-19T06:18:49.424Z,10.92
2023-05-19T06:19:49.369Z,10.88
2023-05-19T06:20:49.381Z,10.90
2023-05-19T06:21:49.391Z,10.94
2023-05-19T06:22:49.412Z,10.96
2023-05-19T06:23:49.407Z,11.02
2023-05-19T06:24:49.412Z,11.08
2023-05-19T06:25:49.420Z,11.11
2023-05-19T06:26:49.439Z,11.13
2023-05-19T06:27:49.447Z,11.21
2023-05-19T06:28:49.462Z,11.26
2023-05-19T06:29:49.471Z,11.33
2023-05-19T06:30:49.479Z,11.39
2023-05-19T06:31:49.509Z,11.37
2023-05-19T06:32:49.541Z,11.41
2023-05-19T06:33:49.520Z,11.44
2023-05-19T06:34:49.521Z,11.49
2023-05-19T06:35:49.533Z,11.58
2023-05-19T06:36:49.546Z,11.70
2023-05-19T06:37:49.554Z,11.80
2023-05-19T06:38:49.567Z,11.89
2023-05-19T06:39:49.578Z,11.93
2023-05-19T06:40:49.588Z,12.03
2023-05-19T06:41:49.602Z,12.16
2023-05-19T06:42:49.617Z,12.27
2023-05-19T06:43:49.652Z,12.37
2023-05-19T06:44:49.649Z,12.53
2023-05-19T06:45:49.666Z,12.58
2023-05-19T06:46:49.749Z,12.64
2023-05-19T06:47:49.692Z,12.71
2023-05-19T06:48:49.700Z,12.74
2023-05-19T06:49:49.706Z,12.77
2023-05-19T06:50:49.720Z,12.80
2023-05-19T06:51:49.731Z,12.86
2023-05-19T06:52:49.758Z,12.93
2023-05-19T06:53:49.753Z,13.03
2023-05-19T06:54:49.767Z,13.11
2023-05-19T06:55:58.528Z,13.21
2023-05-19T06:56:49.793Z,13.26
2023-05-19T06:57:49.808Z,13.26
2023-05-19T06:58:49.824Z,13.25
2023-05-19T06:59:49.833Z,13.30
2023-05-19T07:00:49.848Z,13.36
2023-05-19T07:01:49.884Z,13.51
2023-05-19T07:02:49.993Z,13.51
2023-05-19T07:03:49.951Z,13.57
2023-05-19T07:04:49.902Z,13.68
2023-05-19T07:05:49.917Z,13.71
2023-05-19T07:06:49.930Z,13.76
2023-05-19T07:07:49.939Z,13.75
2023-05-19T07:08:49.978Z,13.70
2023-05-19T07:09:49.982Z,13.66
2023-05-19T07:10:49.981Z,13.64
2023-05-19T07:11:49.991Z,13.60
2023-05-19T07:12:49.999Z,13.58
2023-05-19T07:13:50.018Z,13.60
2023-05-19T07:14:50.016Z,13.60
2023-05-19T07:15:50.036Z,13.59
2023-05-19T07:16:50.113Z,13.61
2023-05-19T07:17:50.076Z,13.61
2023-05-19T07:18:50.087Z,13.58
2023-05-19T07:19:50.079Z,13.55
2023-05-19T07:20:50.091Z,13.58
2023-05-19T07:21:50.103Z,13.57
2023-05-19T07:22:50.112Z,13.56
2023-05-19T07:23:50.136Z,13.55
2023-05-19T07:24:50.137Z,13.47
2023-05-19T07:25:50.141Z,13.47
2023-05-19T07:26:50.156Z,13.45
2023-05-19T07:27:50.166Z,13.44
2023-05-19T07:28:50.182Z,13.43
2023-05-19T07:29:50.190Z,13.36
2023-05-19T07:30:50.198Z,13.34
2023-05-19T07:31:50.258Z,13.32
2023-05-19T07:32:50.228Z,13.34
2023-05-19T07:33:51.668Z,13.33
2023-05-19T07:34:50.238Z,13.37
2023-05-19T07:35:50.250Z,13.41
2023-05-19T07:36:50.264Z,13.46
2023-05-19T07:37:50.272Z,13.53
2023-05-19T07:38:50.323Z,13.57
2023-05-19T07:39:50.290Z,13.61
2023-05-19T07:40:50.292Z,13.65
2023-05-19T07:41:50.308Z,13.70
2023-05-19T07:42:50.314Z,13.73
2023-05-19T07:43:50.333Z,13.80
2023-05-19T07:44:50.336Z,13.86
2023-05-19T07:45:50.386Z,13.90
2023-05-19T07:46:50.373Z,13.91
2023-05-19T07:47:50.418Z,13.97
2023-05-19T07:48:50.390Z,14.00
2023-05-19T07:49:51.843Z,14.06
2023-05-19T07:50:50.421Z,14.08
2023-05-19T07:51:50.436Z,14.11
2023-05-19T07:52:50.448Z,14.10
2023-05-19T07:53:50.458Z,14.06
2023-05-19T07:54:50.472Z,14.04
2023-05-19T07:55:50.491Z,14.01
2023-05-19T07:56:50.494Z,14.03
2023-05-19T07:57:50.500Z,14.05
2023-05-19T07:58:50.523Z,14.06
2023-05-19T07:59:50.537Z,14.08
2023-05-19T08:00:50.543Z,14.08
2023-05-19T08:01:50.556Z,14.10
2023-05-19T08:02:50.592Z,14.14
2023-05-19T08:03:50.616Z,14.21
2023-05-19T08:04:50.628Z,14.20
2023-05-19T08:05:50.610Z,14.15
2023-05-19T08:06:50.614Z,14.14
2023-05-19T08:07:50.622Z,14.14
2023-05-19T08:08:50.645Z,14.13
2023-05-19T08:09:50.653Z,14.15
2023-05-19T08:10:50.670Z,14.15
2023-05-19T08:11:50.686Z,14.14
2023-05-19T08:12:50.702Z,14.13
2023-05-19T08:13:50.706Z,14.12
2023-05-19T08:14:50.714Z,14.13
2023-05-19T08:15:50.768Z,14.14
2023-05-19T08:16:50.740Z,14.13
2023-05-19T08:17:50.793Z,14.18
2023-05-19T08:18:50.772Z,14.18
2023-05-19T08:19:50.773Z,14.19
2023-05-19T08:20:50.788Z,14.19
2023-05-19T08:21:50.868Z,14.22
2023-05-19T08:22:50.864Z,14.24
2023-05-19T08:23:50.890Z,14.26
2023-05-19T08:24:50.881Z,14.26
2023-05-19T08:25:50.903Z,14.28
2023-05-19T08:26:50.914Z,14.26
2023-05-19T08:27:50.936Z,14.23
2023-05-19T08:28:50.950Z,14.20
2023-05-19T08:29:50.958Z,14.18
2023-05-19T08:30:50.973Z,14.15
2023-05-19T08:31:50.993Z,14.12
2023-05-19T08:32:51.015Z,14.09
2023-05-19T08:33:51.005Z,14.10
2023-05-19T08:34:51.023Z,14.05
2023-05-19T08:35:51.030Z,14.05
2023-05-19T08:36:51.046Z,14.06
2023-05-19T08:37:51.056Z,14.05
2023-05-19T08:38:51.072Z,14.08
2023-05-19T08:39:51.137Z,14.07
2023-05-19T08:40:51.109Z,14.07
2023-05-19T08:41:51.103Z,14.08
2023-05-19T08:42:51.130Z,14.08
2023-05-19T08:43:51.127Z,14.07
2023-05-19T08:44:51.134Z,14.06
2023-05-19T08:45:51.148Z,14.05
2023-05-19T08:46:51.209Z,14.04
2023-05-19T08:47:51.217Z,14.00
2023-05-19T08:48:51.187Z,14.01
2023-05-19T08:49:51.195Z,13.98
2023-05-19T08:50:51.216Z,14.00
2023-05-19T08:51:51.231Z,14.00
2023-05-19T08:52:52.942Z,14.03
2023-05-19T08:53:51.254Z,14.00
2023-05-19T08:54:51.276Z,14.00
2023-05-19T08:55:51.277Z,13.93
2023-05-19T08:56:51.282Z,13.89
2023-05-19T08:57:51.292Z,13.88
2023-05-19T08:58:51.309Z,13.90
2023-05-19T08:59:51.328Z,13.92
2023-05-19T09:00:51.368Z,13.96
2023-05-19T09:01:51.350Z,13.98
2023-05-19T09:02:55.520Z,14.00
2023-05-19T09:03:51.420Z,14.01
2023-05-19T09:04:51.432Z,14.02
2023-05-19T09:05:51.525Z,14.01
2023-05-19T09:06:51.413Z,14.01
2023-05-19T09:07:51.421Z,14.04
2023-05-19T09:08:51.441Z,14.06
2023-05-19T09:09:51.444Z,14.08
2023-05-19T09:10:51.460Z,14.09
2023-05-19T09:11:51.476Z,14.13
2023-05-19T09:12:51.492Z,14.15
2023-05-19T09:13:51.500Z,14.13
2023-05-19T09:14:51.515Z,14.13
2023-05-19T09:15:51.532Z,14.16
2023-05-19T09:16:51.555Z,14.17
2023-05-19T09:17:51.569Z,14.18
2023-05-19T09:18:51.567Z,14.18
2023-05-19T09:19:51.594Z,14.19
2023-05-19T09:20:51.590Z,14.21
2023-05-19T09:21:51.603Z,14.18
2023-05-19T09:22:51.620Z,14.23
2023-05-19T09:23:51.626Z,14.24
2023-05-19T09:24:51.635Z,14.26
2023-05-19T09:25:51.660Z,14.28
2023-05-19T09:26:51.667Z,14.29
2023-05-19T09:27:51.682Z,14.31
2023-05-19T09:28:51.688Z,14.34
2023-05-19T09:29:51.702Z,14.37
2023-05-19T09:30:51.717Z,14.41
2023-05-19T09:31:51.935Z,14.43
2023-05-19T09:32:51.797Z,14.44
2023-05-19T09:33:51.768Z,14.44
2023-05-19T09:34:51.778Z,14.45
2023-05-19T09:35:51.787Z,14.46
2023-05-19T09:36:51.821Z,14.49
2023-05-19T09:37:51.815Z,14.47
2023-05-19T09:38:51.825Z,14.43
2023-05-19T09:39:51.841Z,14.41
2023-05-19T09:40:51.855Z,14.36
2023-05-19T09:41:51.860Z,14.37
2023-05-19T09:42:51.872Z,14.39
2023-05-19T09:43:51.892Z,14.39
2023-05-19T09:44:51.909Z,14.43
2023-05-19T09:45:51.937Z,14.47
2023-05-19T09:46:51.932Z,14.52
2023-05-19T09:47:51.970Z,14.56
2023-05-19T09:48:51.977Z,14.59
2023-05-19T09:49:51.975Z,14.60
2023-05-19T09:50:51.984Z,14.60
2023-05-19T09:51:52.002Z,14.65
2023-05-19T09:52:52.009Z,14.70
2023-05-19T09:53:52.049Z,14.74
2023-05-19T09:54:52.031Z,14.76
2023-05-19T09:55:52.044Z,14.78
2023-05-19T09:56:52.055Z,14.76
2023-05-19T09:57:52.074Z,14.77
2023-05-19T09:58:52.081Z,14.77
2023-05-19T09:59:52.097Z,14.79
2023-05-19T10:00:52.104Z,14.84
2023-05-19T10:01:52.185Z,14.86
2023-05-19T10:02:52.141Z,14.89
2023-05-19T10:03:52.165Z,14.91
2023-05-19T10:04:52.197Z,14.95
2023-05-19T10:05:52.180Z,14.93
2023-05-19T10:06:52.190Z,14.98
2023-05-19T10:07:52.204Z,14.99
2023-05-19T10:08:52.215Z,15.02
2023-05-19T10:09:52.235Z,15.03
2023-05-19T10:10:52.236Z,15.02
2023-05-19T10:11:52.254Z,15.02
2023-05-19T10:12:52.257Z,15.04
2023-05-19T10:13:52.282Z,15.00
2023-05-19T10:14:52.284Z,14.99
2023-05-19T10:16:52.415Z,15.00
2023-05-19T10:17:52.365Z,15.02
2023-05-19T10:18:52.376Z,15.04
2023-05-19T10:19:52.350Z,15.06
2023-05-19T10:20:52.369Z,15.07
2023-05-19T10:21:52.372Z,15.10
2023-05-19T10:22:52.385Z,15.10
2023-05-19T10:23:52.399Z,15.06
2023-05-19T10:24:52.421Z,15.06
2023-05-19T10:25:52.448Z,15.05
2023-05-19T10:26:52.454Z,15.05
2023-05-19T10:27:52.457Z,15.04
2023-05-19T10:28:52.466Z,15.06
2023-05-19T10:29:52.484Z,15.11
2023-05-19T10:30:52.482Z,15.12
2023-05-19T10:31:52.503Z,15.12
2023-05-19T10:32:52.524Z,15.14
2023-05-19T10:33:52.523Z,15.14
2023-05-19T10:34:52.543Z,15.13
2023-05-19T10:35:52.548Z,15.15
2023-05-19T10:36:52.552Z,15.20
2023-05-19T10:37:52.568Z,15.21
2023-05-19T10:38:52.569Z,15.26
2023-05-19T10:39:52.582Z,15.27
2023-05-19T10:40:52.583Z,15.32
2023-05-19T10:41:52.597Z,15.31
2023-05-19T10:42:52.611Z,15.31
2023-05-19T10:43:52.620Z,15.35
2023-05-19T10:44:52.659Z,15.33
2023-05-19T10:45:52.644Z,15.31
2023-05-19T10:46:54.233Z,15.30
2023-05-19T10:47:52.705Z,15.29
2023-05-19T10:48:52.685Z,15.27
2023-05-19T10:49:52.696Z,15.27
2023-05-19T10:50:52.702Z,15.27
2023-05-19T10:51:52.736Z,15.28
2023-05-19T10:52:52.736Z,15.30
2023-05-19T10:53:52.781Z,15.29
2023-05-19T10:54:52.761Z,15.28
2023-05-19T10:55:52.787Z,15.28
2023-05-19T10:56:52.788Z,15.30
2023-05-19T10:57:52.800Z,15.33
2023-05-19T10:58:52.808Z,15.38
2023-05-19T10:59:52.819Z,15.37
2023-05-19T11:00:52.821Z,15.39
2023-05-19T11:01:52.865Z,15.41
2023-05-19T11:02:52.952Z,15.45
2023-05-19T11:03:52.903Z,15.47
2023-05-19T11:04:52.886Z,15.49
2023-05-19T11:05:52.898Z,15.53
2023-05-19T11:06:52.906Z,15.55
2023-05-19T11:07:52.929Z,15.54
2023-05-19T11:08:52.942Z,15.54
2023-05-19T11:09:52.956Z,15.52
2023-05-19T11:10:52.953Z,15.53
2023-05-19T11:11:52.978Z,15.53
2023-05-19T11:12:52.978Z,15.55
2023-05-19T11:13:53.002Z,15.55
2023-05-19T11:14:53.010Z,15.52
2023-05-19T11:15:53.018Z,15.51
2023-05-19T11:16:53.103Z,15.50
2023-05-19T11:17:53.055Z,15.49
2023-05-19T11:18:53.072Z,15.51
2023-05-19T11:19:53.078Z,15.53
2023-05-19T11:20:53.131Z,15.56
2023-05-19T11:21:53.107Z,15.60
2023-05-19T11:22:53.140Z,15.63
2023-05-19T11:23:53.159Z,15.65
2023-05-19T11:24:53.169Z,15.67
2023-05-19T11:25:53.145Z,15.69
2023-05-19T11:26:53.201Z,15.78
2023-05-19T11:27:53.191Z,15.81
2023-05-19T11:28:53.191Z,15.86
2023-05-19T11:29:53.218Z,15.80
2023-05-19T11:30:53.218Z,15.79
2023-05-19T11:31:53.259Z,15.77
2023-05-19T11:32:53.283Z,15.75
2023-05-19T11:33:53.273Z,15.76
2023-05-19T11:34:53.278Z,15.75
2023-05-19T11:35:53.289Z,15.72
2023-05-19T11:36:53.296Z,15.72
2023-05-19T11:37:53.306Z,15.73
2023-05-19T11:38:53.324Z,15.77
2023-05-19T11:39:53.342Z,15.80
2023-05-19T11:40:53.355Z,15.85
2023-05-19T11:41:53.366Z,15.90
2023-05-19T11:42:53.382Z,15.92
2023-05-19T11:43:53.433Z,15.92
2023-05-19T11:44:53.415Z,15.93
2023-05-19T11:45:53.474Z,15.94
2023-05-19T11:46:53.490Z,15.95
2023-05-19T11:48:53.480Z,15.95
2023-05-19T11:49:53.484Z,15.95
2023-05-19T11:50:53.491Z,15.98
2023-05-19T11:51:53.514Z,16.01
2023-05-19T11:52:53.513Z,16.06
2023-05-19T11:53:53.575Z,16.09
2023-05-19T11:54:53.541Z,16.12
2023-05-19T11:55:53.639Z,16.15
2023-05-19T11:56:53.551Z,16.19
2023-05-19T11:58:02.652Z,16.20
2023-05-19T11:58:53.573Z,16.20
2023-05-19T11:59:53.589Z,16.21
2023-05-19T12:00:53.592Z,16.27
2023-05-19T12:01:53.610Z,16.33
2023-05-19T12:02:53.665Z,16.42
2023-05-19T12:03:53.860Z,16.48
2023-05-19T12:04:53.674Z,16.50
2023-05-19T12:05:53.714Z,16.50
2023-05-19T12:06:53.672Z,16.50
2023-05-19T12:07:53.687Z,16.51
2023-05-19T12:08:53.697Z,16.55
2023-05-19T12:09:53.709Z,16.57
2023-05-19T12:10:53.724Z,16.62
2023-05-19T12:11:53.734Z,16.61
2023-05-19T12:12:53.755Z,16.46
2023-05-19T12:13:53.760Z,16.32
2023-05-19T12:14:53.804Z,16.28
2023-05-19T12:15:53.871Z,16.28
2023-05-19T12:16:53.829Z,16.33
2023-05-19T12:17:53.833Z,16.38
2023-05-19T12:18:53.864Z,16.42
2023-05-19T12:19:53.842Z,16.43
2023-05-19T12:20:53.860Z,16.44
2023-05-19T12:21:53.888Z,16.40
2023-05-19T12:22:53.880Z,16.39
2023-05-19T12:23:53.891Z,16.40
2023-05-19T12:24:53.905Z,16.43
2023-05-19T12:25:53.913Z,16.43
2023-05-19T12:26:53.934Z,16.41
2023-05-19T12:27:54.580Z,16.39
2023-05-19T12:28:53.960Z,16.38
2023-05-19T12:29:53.986Z,16.38
2023-05-19T12:30:53.993Z,16.41
2023-05-19T12:31:54.044Z,16.43
2023-05-19T12:32:54.071Z,16.50
2023-05-19T12:33:54.034Z,16.55
2023-05-19T12:34:54.041Z,16.57
2023-05-19T12:35:54.067Z,16.59
2023-05-19T12:36:54.087Z,16.62
2023-05-19T12:37:54.085Z,16.64
2023-05-19T12:38:54.096Z,16.71
2023-05-19T12:39:54.105Z,16.72
2023-05-19T12:40:54.125Z,16.74
2023-05-19T12:41:54.137Z,16.80
2023-05-19T12:42:54.143Z,16.83
2023-05-19T12:43:54.162Z,16.87
2023-05-19T12:44:54.168Z,16.92
2023-05-19T12:45:54.202Z,17.02
2023-05-19T12:46:54.185Z,17.10
2023-05-19T12:47:54.235Z,17.22
2023-05-19T12:48:54.208Z,17.25
2023-05-19T12:49:54.211Z,17.22
2023-05-19T12:50:54.231Z,17.21
2023-05-19T12:51:54.238Z,17.20
2023-05-19T12:52:54.261Z,17.22
2023-05-19T12:53:54.282Z,17.21
2023-05-19T12:54:54.337Z,17.18
2023-05-19T12:55:54.300Z,17.15
2023-05-19T12:56:54.317Z,17.12
2023-05-19T12:57:54.330Z,17.05
2023-05-19T12:58:54.348Z,16.99
2023-05-19T12:59:54.341Z,16.99
2023-05-19T13:00:54.414Z,16.99
2023-05-19T13:01:54.390Z,17.02
2023-05-19T13:02:54.431Z,17.00
2023-05-19T13:03:54.476Z,17.04
2023-05-19T13:04:54.384Z,17.10
2023-05-19T13:05:54.389Z,17.14
2023-05-19T13:06:54.393Z,17.23
2023-05-19T13:07:54.402Z,17.30
2023-05-19T13:08:54.404Z,17.40
2023-05-19T13:09:54.414Z,17.47
2023-05-19T13:10:54.420Z,17.54
2023-05-19T13:11:54.439Z,17.57
2023-05-19T13:12:54.426Z,17.59
2023-05-19T13:13:54.434Z,17.62
2023-05-19T13:14:55.723Z,17.64
2023-05-19T13:15:54.449Z,17.63
2023-05-19T13:16:54.504Z,17.63
2023-05-19T13:17:54.524Z,17.59
2023-05-19T13:18:54.881Z,17.58
2023-05-19T13:19:54.546Z,17.59
2023-05-19T13:20:54.531Z,17.57
2023-05-19T13:21:54.507Z,17.54
2023-05-19T13:22:54.514Z,17.48